Maldives Meteorological Service

METAR

Station
VRMM
METAR VRMM 260800Z 26008KT 9999 FEW019 31/26 Q1011 NOSIG=
VRMH
METAR VRMH 260800Z 28006KT 9999 FEW018 33/25 Q1011=
VRMK
METAR VRMK 260800Z 28005KT 9999 FEW019 33/26 Q1011=
VRMT
METAR VRMT 260800Z 29008KT 9999 SCT018 FEW019CB 31/26 Q1011 CB N, ESE=
VRMG
METAR VRMG 260800Z 27012KT 9999 SCT018 FEW019CB 32/26 Q1011 CB E,W NOSIG=
Last Updated : 2017-04-26 13:00:01

SPECI

Station
VRMM
VRMH
VRMK
VRMT
VRMG
Last Updated : 2017-04-26 13:00:01